Hlavní strana
METAR-TAF:

METAR-TAF

Letiště :

Clinton, Severní Karolína, Spojené státy americké

zeměpisná šířka: 34-58-32N, zeměpisná délka: 078-21-53W, výška: 45 m

Aktuální stav počasí

Zpráva byla vytvořena před 12 minutami, v 05:55 UTC
Bezvětří
Teplota 22°C
Vlhkost vzduchu 100%
Tlak 1018 hPa
Viditelnost: 11.3 km
Jasno

METAR: KCTZ 060555Z AUTO 00000KT 7SM CLR 22/22 A3005 RMK AO2 T02180218 10245 20217 403380217

Čas: 02:07 (06:07 UTC)


TAF: chybějící

Stav a předpovědi počasí z více než 4 000 letišť (zprávy METAR a TAF).

Červené a žluté tečky na mapě představují dostupné meteorologické stanice.

Když kurzor umístíte na tečku, zobrazí se název stanice.

Pak kliknutím zobrazíte stav a předpověď počasí.

Chcete-li změnit mapu, kliknutím na zelené tlačítko se znaménkem +mapu přiblížíte, kliknutím na zelené tlačítko se znaménkem – mapu oddálíte a kliknutím na zelené šipky přejdete na sousední mapy.


METAR-TAF: